Time;durP1;ratioP1;P1;durP2;ratioP2;P2;SDS_P1;SDS_P2;PMS_P1;PMS_P2;Temp;Humidity;BMP_temperature;BMP_pressure;BME280_temperature;BME280_humidity;BME280_pressure;Samples;Min_cycle;Max_cycle;Signal;HPM_P1;HPM_P2
2023/06/29 00:01:13;;;;;;;43.83;25.50;;;;;;;;;;10356235;28;20105;-85
2023/06/29 00:06:14;;;;;;;43.42;25.38;;;;;;;;;;10363861;28;20160;-83
2023/06/29 00:11:15;;;;;;;43.58;25.80;;;;;;;;;;10357010;28;20046;-84
2023/06/29 00:16:17;;;;;;;41.05;24.42;;;;;;;;;;10364333;28;20032;-84
2023/06/29 00:21:18;;;;;;;44.33;25.08;;;;;;;;;;10359873;28;20548;-84
2023/06/29 00:26:20;;;;;;;44.28;25.40;;;;;;;;;;10366711;28;20068;-84
2023/06/29 00:31:24;;;;;;;54.17;26.48;;;;;;;;;;10349025;28;20120;-87
2023/06/29 00:36:25;;;;;;;54.90;26.27;;;;;;;;;;10366318;28;20037;-86
2023/06/29 00:41:26;;;;;;;47.15;25.90;;;;;;;;;;10360772;28;20083;-86
2023/06/29 00:46:27;;;;;;;53.38;28.30;;;;;;;;;;10363003;28;20440;-86
2023/06/29 00:51:29;;;;;;;51.92;27.00;;;;;;;;;;10359582;28;20039;-85
2023/06/29 00:56:34;;;;;;;51.97;25.77;;;;;;;;;;10352998;28;20080;-85
2023/06/29 01:01:38;;;;;;;51.83;25.33;;;;;;;;;;10351603;28;20089;-85
2023/06/29 01:06:54;;;;;;;48.42;25.60;;;;;;;;;;10364041;28;20032;-85
2023/06/29 01:11:57;;;;;;;51.90;26.92;;;;;;;;;;10343571;28;20384;-84
2023/06/29 01:16:59;;;;;;;53.67;25.77;;;;;;;;;;10354543;28;20037;-85
2023/06/29 01:22:04;;;;;;;50.33;26.38;;;;;;;;;;10362678;28;20062;-86
2023/06/29 01:27:05;;;;;;;39.72;23.38;;;;;;;;;;10365289;28;20057;-84
2023/06/29 01:32:07;;;;;;;45.05;25.48;;;;;;;;;;10363552;28;20026;-84
2023/06/29 01:37:17;;;;;;;47.83;24.92;;;;;;;;;;10352753;28;20045;-85
2023/06/29 01:42:20;;;;;;;51.25;26.02;;;;;;;;;;10363516;28;20501;-83
2023/06/29 01:47:21;;;;;;;51.05;26.55;;;;;;;;;;10362175;28;20034;-83
2023/06/29 01:52:23;;;;;;;54.10;28.30;;;;;;;;;;10355879;28;20163;-86
2023/06/29 01:57:24;;;;;;;56.88;27.60;;;;;;;;;;10363821;28;20010;-85
2023/06/29 02:02:25;;;;;;;51.95;27.40;;;;;;;;;;10350054;28;20093;-84
2023/06/29 02:07:26;;;;;;;58.65;29.65;;;;;;;;;;10361974;28;20396;-85
2023/06/29 02:12:27;;;;;;;60.00;29.25;;;;;;;;;;10349348;28;20184;-83
2023/06/29 02:17:28;;;;;;;56.80;28.60;;;;;;;;;;10359715;28;20168;-86
2023/06/29 02:22:29;;;;;;;61.10;30.48;;;;;;;;;;10360003;28;20451;-84
2023/06/29 02:27:30;;;;;;;58.22;30.10;;;;;;;;;;10360392;28;20061;-83
2023/06/29 02:32:31;;;;;;;51.05;26.58;;;;;;;;;;10356100;28;20033;-84
2023/06/29 02:37:32;;;;;;;52.15;28.27;;;;;;;;;;10360521;28;20049;-83
2023/06/29 02:42:33;;;;;;;55.05;27.65;;;;;;;;;;10358292;28;20519;-86
2023/06/29 02:47:34;;;;;;;48.38;26.52;;;;;;;;;;10353483;28;20037;-85
2023/06/29 02:52:35;;;;;;;48.33;25.63;;;;;;;;;;10362184;28;20030;-83
2023/06/29 02:57:36;;;;;;;43.10;26.48;;;;;;;;;;10362731;28;20044;-85
2023/06/29 03:02:37;;;;;;;41.70;24.00;;;;;;;;;;10365529;28;20034;-85
2023/06/29 03:07:38;;;;;;;41.83;24.70;;;;;;;;;;10361978;28;20060;-84
2023/06/29 03:12:41;;;;;;;44.47;25.00;;;;;;;;;;10353637;28;20076;-85
2023/06/29 03:17:42;;;;;;;36.33;22.95;;;;;;;;;;10356587;28;20037;-84
2023/06/29 03:22:43;;;;;;;39.10;23.00;;;;;;;;;;10353050;28;20029;-85
2023/06/29 03:27:44;;;;;;;41.40;24.80;;;;;;;;;;10362695;28;20750;-86
2023/06/29 03:32:45;;;;;;;40.53;22.25;;;;;;;;;;10363623;28;20030;-86
2023/06/29 03:37:46;;;;;;;39.58;22.90;;;;;;;;;;10368804;28;20029;-85
2023/06/29 03:42:47;;;;;;;36.88;21.80;;;;;;;;;;10352925;28;20122;-86
2023/06/29 03:47:48;;;;;;;41.17;23.55;;;;;;;;;;10365096;28;20029;-83
2023/06/29 03:52:49;;;;;;;37.88;22.63;;;;;;;;;;10356890;28;20113;-85
2023/06/29 03:57:50;;;;;;;32.33;20.58;;;;;;;;;;10374384;28;20413;-84
2023/06/29 04:02:51;;;;;;;37.83;21.38;;;;;;;;;;10352452;28;20041;-86
2023/06/29 04:07:52;;;;;;;29.35;19.85;;;;;;;;;;10359162;28;20042;-86
2023/06/29 04:12:53;;;;;;;32.17;20.55;;;;;;;;;;10360865;28;20544;-86
2023/06/29 04:17:54;;;;;;;36.47;20.52;;;;;;;;;;10365747;28;20297;-83
2023/06/29 04:22:55;;;;;;;34.83;20.50;;;;;;;;;;10365544;28;20040;-85
2023/06/29 04:27:56;;;;;;;36.28;22.33;;;;;;;;;;10366867;28;20440;-86
2023/06/29 04:33:03;;;;;;;37.22;20.70;;;;;;;;;;10359550;28;20042;-84
2023/06/29 04:38:04;;;;;;;36.58;22.73;;;;;;;;;;10362039;28;20037;-85
2023/06/29 04:43:06;;;;;;;37.22;20.98;;;;;;;;;;10366637;28;20034;-87
2023/06/29 04:48:07;;;;;;;32.65;21.15;;;;;;;;;;10354568;28;20555;-83
2023/06/29 04:53:09;;;;;;;36.38;22.20;;;;;;;;;;10353323;28;20062;-83
2023/06/29 04:58:10;;;;;;;31.10;20.88;;;;;;;;;;10361275;28;20453;-85
2023/06/29 05:03:11;;;;;;;33.25;20.35;;;;;;;;;;10358395;28;20165;-82
2023/06/29 05:08:12;;;;;;;32.13;19.80;;;;;;;;;;10360457;28;20050;-86
2023/06/29 05:13:13;;;;;;;32.00;20.08;;;;;;;;;;10351478;28;20053;-84
2023/06/29 05:18:15;;;;;;;29.20;18.73;;;;;;;;;;10351843;28;20044;-84
2023/06/29 05:23:16;;;;;;;30.88;18.25;;;;;;;;;;10351762;28;20449;-83
2023/06/29 05:28:17;;;;;;;27.35;18.48;;;;;;;;;;10362191;28;20409;-86
2023/06/29 05:33:18;;;;;;;31.38;19.60;;;;;;;;;;10388817;23;20071;-83
2023/06/29 05:38:19;;;;;;;26.88;17.45;;;;;;;;;;10405699;28;20038;-83
2023/06/29 05:43:21;;;;;;;27.17;17.73;;;;;;;;;;10407918;28;20488;-84
2023/06/29 05:48:22;;;;;;;24.85;17.00;;;;;;;;;;10410563;28;20116;-84
2023/06/29 05:53:24;;;;;;;23.85;15.88;;;;;;;;;;10417050;28;20327;-86
2023/06/29 05:58:25;;;;;;;21.98;14.90;;;;;;;;;;10403220;28;20119;-85
2023/06/29 06:03:26;;;;;;;26.75;17.15;;;;;;;;;;10407398;28;20035;-87
2023/06/29 06:08:27;;;;;;;25.70;16.50;;;;;;;;;;10402633;28;20250;-86
2023/06/29 06:13:28;;;;;;;27.52;16.95;;;;;;;;;;10404259;28;20026;-85
2023/06/29 06:18:30;;;;;;;24.35;16.48;;;;;;;;;;10399697;28;20800;-83
2023/06/29 06:23:31;;;;;;;19.98;14.35;;;;;;;;;;10391082;28;20037;-85
2023/06/29 06:28:33;;;;;;;20.58;14.70;;;;;;;;;;10404109;28;20056;-86
2023/06/29 06:33:34;;;;;;;21.85;15.25;;;;;;;;;;10397784;28;20407;-86
2023/06/29 06:38:35;;;;;;;23.08;15.23;;;;;;;;;;10411003;28;20033;-87
2023/06/29 06:43:36;;;;;;;21.65;15.05;;;;;;;;;;10413614;28;20034;-87
2023/06/29 06:48:37;;;;;;;24.83;15.05;;;;;;;;;;10411360;28;20043;-85
2023/06/29 06:53:38;;;;;;;20.83;13.70;;;;;;;;;;10394879;28;20028;-88
2023/06/29 06:58:39;;;;;;;21.02;13.80;;;;;;;;;;10402456;28;20124;-89
2023/06/29 07:03:40;;;;;;;23.13;14.25;;;;;;;;;;10404985;28;20025;-87
2023/06/29 07:08:41;;;;;;;20.35;13.73;;;;;;;;;;10414587;28;20095;-85
2023/06/29 07:13:42;;;;;;;18.02;12.57;;;;;;;;;;10397954;28;20029;-89
2023/06/29 07:18:47;;;;;;;23.27;14.18;;;;;;;;;;10405632;28;20389;-88
2023/06/29 07:23:48;;;;;;;21.17;15.07;;;;;;;;;;10415196;28;20064;-87
2023/06/29 07:28:49;;;;;;;21.65;14.65;;;;;;;;;;10412475;28;20477;-87
2023/06/29 07:33:52;;;;;;;21.95;15.48;;;;;;;;;;10415240;28;20407;-87
2023/06/29 07:38:55;;;;;;;23.90;15.02;;;;;;;;;;10409284;28;20456;-86
2023/06/29 07:43:56;;;;;;;24.80;15.23;;;;;;;;;;10407313;28;20117;-85
2023/06/29 07:48:59;;;;;;;22.85;15.57;;;;;;;;;;10408030;28;20404;-86
2023/06/29 07:54:04;;;;;;;24.17;15.85;;;;;;;;;;10408054;28;20881;-86
2023/06/29 07:59:05;;;;;;;19.25;14.48;;;;;;;;;;10410027;28;20025;-86
2023/06/29 08:04:06;;;;;;;18.02;13.23;;;;;;;;;;10413041;28;20078;-85
2023/06/29 08:09:08;;;;;;;18.40;12.80;;;;;;;;;;10420196;28;20049;-87
2023/06/29 08:14:09;;;;;;;23.95;15.55;;;;;;;;;;10409660;28;20241;-85
2023/06/29 08:19:10;;;;;;;23.48;15.55;;;;;;;;;;10406765;28;20124;-86
2023/06/29 08:24:11;;;;;;;26.17;17.48;;;;;;;;;;10418155;28;20497;-87
2023/06/29 08:29:12;;;;;;;28.10;16.60;;;;;;;;;;10409623;28;20117;-85
2023/06/29 08:34:13;;;;;;;21.42;14.70;;;;;;;;;;10407547;28;20106;-86
2023/06/29 08:39:14;;;;;;;17.00;13.23;;;;;;;;;;10406436;28;20106;-85
2023/06/29 08:44:15;;;;;;;17.60;12.13;;;;;;;;;;10407585;28;20052;-85
2023/06/29 08:49:16;;;;;;;17.73;11.75;;;;;;;;;;10409841;28;20029;-86
2023/06/29 08:54:18;;;;;;;16.98;11.10;;;;;;;;;;10431539;28;20037;-86
2023/06/29 08:59:19;;;;;;;14.52;10.02;;;;;;;;;;10408218;28;20037;-85
2023/06/29 09:04:20;;;;;;;11.13;9.57;;;;;;;;;;10407852;28;20099;-86
2023/06/29 09:09:21;;;;;;;12.70;9.02;;;;;;;;;;10395321;28;20038;-85
2023/06/29 09:14:23;;;;;;;9.90;8.18;;;;;;;;;;10397888;28;20576;-85
2023/06/29 09:19:24;;;;;;;10.73;8.27;;;;;;;;;;10404363;28;20059;-85
2023/06/29 09:24:31;;;;;;;10.60;7.78;;;;;;;;;;10404124;28;20037;-85
2023/06/29 09:29:37;;;;;;;10.13;8.35;;;;;;;;;;10399169;28;20041;-85
2023/06/29 09:34:44;;;;;;;11.35;8.90;;;;;;;;;;10418833;28;20056;-84
2023/06/29 09:39:57;;;;;;;11.85;9.20;;;;;;;;;;10409549;28;20029;-87
2023/06/29 09:45:02;;;;;;;12.52;8.80;;;;;;;;;;10407730;28;20028;-84
2023/06/29 09:50:03;;;;;;;12.32;8.88;;;;;;;;;;10405216;28;20064;-83
2023/06/29 09:55:05;;;;;;;11.18;8.57;;;;;;;;;;10417995;28;20501;-84
2023/06/29 10:00:11;;;;;;;10.43;8.38;;;;;;;;;;10407857;28;20036;-84
2023/06/29 10:05:12;;;;;;;10.43;7.45;;;;;;;;;;10416280;28;20389;-84
2023/06/29 10:10:18;;;;;;;10.48;8.82;;;;;;;;;;10414622;28;20053;-84
2023/06/29 10:15:19;;;;;;;8.30;7.32;;;;;;;;;;10414112;28;20017;-85
2023/06/29 10:20:21;;;;;;;8.15;6.22;;;;;;;;;;10413133;28;20066;-84
2023/06/29 10:25:22;;;;;;;7.38;6.32;;;;;;;;;;10405394;28;20692;-83
2023/06/29 10:30:23;;;;;;;8.15;6.50;;;;;;;;;;10416544;28;20053;-83
2023/06/29 10:35:24;;;;;;;7.30;6.18;;;;;;;;;;10407702;28;20053;-83
2023/06/29 10:40:28;;;;;;;9.48;6.05;;;;;;;;;;10413399;28;20029;-83
2023/06/29 10:45:30;;;;;;;9.95;6.22;;;;;;;;;;10414919;28;20388;-83
2023/06/29 10:50:38;;;;;;;7.30;4.80;;;;;;;;;;10419674;28;20574;-83
2023/06/29 10:55:39;;;;;;;7.85;4.65;;;;;;;;;;10422511;28;20032;-84
2023/06/29 11:00:39;;;;;;;5.72;4.20;;;;;;;;;;10423581;28;20025;-83
2023/06/29 11:05:41;;;;;;;6.78;4.43;;;;;;;;;;10421142;28;20033;-84
2023/06/29 11:10:42;;;;;;;6.15;5.35;;;;;;;;;;10416141;28;20153;-84
2023/06/29 11:15:44;;;;;;;7.30;5.25;;;;;;;;;;10424281;28;20029;-84
2023/06/29 11:20:45;;;;;;;7.20;5.35;;;;;;;;;;10416949;28;20377;-84
2023/06/29 11:25:46;;;;;;;8.10;5.07;;;;;;;;;;10423052;28;20123;-84
2023/06/29 11:30:49;;;;;;;4.70;3.88;;;;;;;;;;10419042;28;20061;-84
2023/06/29 11:35:49;;;;;;;5.10;4.22;;;;;;;;;;10409665;28;20102;-84
2023/06/29 11:41:01;;;;;;;5.47;4.60;;;;;;;;;;10411162;28;20044;-84
2023/06/29 11:46:03;;;;;;;6.85;4.47;;;;;;;;;;10416810;28;20090;-86
2023/06/29 11:51:05;;;;;;;6.28;3.88;;;;;;;;;;10407759;28;20548;-85
2023/06/29 11:56:06;;;;;;;4.68;3.63;;;;;;;;;;10415427;28;20041;-85
2023/06/29 12:01:07;;;;;;;5.50;3.63;;;;;;;;;;10416292;28;20508;-85
2023/06/29 12:06:08;;;;;;;4.47;4.07;;;;;;;;;;10418494;28;20044;-84
2023/06/29 12:11:16;;;;;;;5.75;3.65;;;;;;;;;;10409374;28;20076;-84
2023/06/29 12:16:17;;;;;;;5.18;4.13;;;;;;;;;;10409120;28;20130;-85
2023/06/29 12:21:21;;;;;;;6.68;3.83;;;;;;;;;;10408756;28;20042;-85
2023/06/29 12:26:23;;;;;;;5.33;3.53;;;;;;;;;;10417977;28;20033;-85
2023/06/29 12:31:25;;;;;;;11.02;3.67;;;;;;;;;;10408547;28;20544;-85
2023/06/29 12:36:26;;;;;;;4.05;3.22;;;;;;;;;;10417516;28;20049;-85
2023/06/29 12:41:31;;;;;;;7.13;3.50;;;;;;;;;;10401924;28;20037;-87
2023/06/29 12:46:32;;;;;;;3.80;3.35;;;;;;;;;;10406065;28;20029;-87
2023/06/29 12:51:33;;;;;;;6.28;4.03;;;;;;;;;;10408825;28;20033;-86
2023/06/29 12:56:34;;;;;;;4.47;3.58;;;;;;;;;;10402770;28;20034;-87
2023/06/29 13:01:35;;;;;;;8.68;5.90;;;;;;;;;;10408538;28;20030;-86
2023/06/29 13:06:36;;;;;;;4.60;3.80;;;;;;;;;;10406321;28;20159;-87
2023/06/29 13:11:38;;;;;;;3.97;3.58;;;;;;;;;;10405262;28;20047;-87
2023/06/29 13:16:39;;;;;;;5.32;4.10;;;;;;;;;;10403849;28;20087;-88
2023/06/29 13:21:40;;;;;;;5.07;3.85;;;;;;;;;;10406096;28;20032;-86
2023/06/29 13:26:41;;;;;;;3.97;3.22;;;;;;;;;;10408126;28;20392;-87
2023/06/29 13:31:42;;;;;;;4.10;3.20;;;;;;;;;;10412902;28;20029;-86
2023/06/29 13:36:43;;;;;;;5.32;3.92;;;;;;;;;;10403943;28;20412;-87
2023/06/29 13:41:44;;;;;;;4.18;3.50;;;;;;;;;;10404438;28;20029;-87
2023/06/29 13:46:46;;;;;;;4.65;3.50;;;;;;;;;;10391317;28;20033;-87
2023/06/29 13:51:47;;;;;;;4.82;3.70;;;;;;;;;;10403560;28;20037;-88
2023/06/29 13:56:49;;;;;;;3.30;3.00;;;;;;;;;;10404835;28;20041;-87
2023/06/29 14:01:50;;;;;;;4.32;3.70;;;;;;;;;;10404433;28;20037;-86
2023/06/29 14:06:52;;;;;;;3.53;2.92;;;;;;;;;;10425938;28;20037;-86
2023/06/29 14:11:53;;;;;;;7.97;5.65;;;;;;;;;;10401722;28;20086;-88
2023/06/29 14:16:54;;;;;;;4.25;3.00;;;;;;;;;;10409484;28;20026;-86
2023/06/29 14:21:55;;;;;;;5.13;3.20;;;;;;;;;;10402382;28;20029;-88
2023/06/29 14:26:56;;;;;;;3.95;2.70;;;;;;;;;;10421925;28;20064;-89
2023/06/29 14:31:57;;;;;;;3.22;2.92;;;;;;;;;;10402958;28;20052;-87
2023/06/29 14:36:58;;;;;;;3.58;2.88;;;;;;;;;;10415739;23;20538;-88
2023/06/29 14:42:01;;;;;;;3.85;2.88;;;;;;;;;;10357592;28;20532;-85
2023/06/29 14:47:02;;;;;;;5.88;3.13;;;;;;;;;;10350087;28;20118;-90
2023/06/29 14:52:03;;;;;;;3.25;2.92;;;;;;;;;;10361358;28;20084;-87
2023/06/29 14:57:05;;;;;;;6.00;2.92;;;;;;;;;;10358930;28;20046;-87
2023/06/29 15:02:06;;;;;;;3.08;2.53;;;;;;;;;;10361448;28;20476;-86
2023/06/29 15:07:07;;;;;;;11.55;6.47;;;;;;;;;;10359099;28;20045;-86
2023/06/29 15:12:08;;;;;;;3.60;2.63;;;;;;;;;;10348452;28;20472;-85
2023/06/29 15:17:09;;;;;;;2.60;2.35;;;;;;;;;;10360094;28;20109;-85
2023/06/29 15:22:10;;;;;;;5.68;2.83;;;;;;;;;;10362192;28;20037;-87
2023/06/29 15:27:11;;;;;;;3.22;2.60;;;;;;;;;;10345730;28;20044;-87
2023/06/29 15:32:12;;;;;;;60.15;34.38;;;;;;;;;;10352840;28;20042;-85
2023/06/29 15:37:13;;;;;;;26.73;15.32;;;;;;;;;;10357669;28;20062;-85
2023/06/29 15:42:14;;;;;;;4.32;2.90;;;;;;;;;;10344639;28;20494;-85
2023/06/29 15:47:15;;;;;;;36.25;19.50;;;;;;;;;;10361398;28;20092;-84
2023/06/29 15:52:16;;;;;;;36.92;21.70;;;;;;;;;;10366817;28;20477;-85
2023/06/29 15:57:17;;;;;;;4.78;3.28;;;;;;;;;;10352638;28;20128;-85
2023/06/29 16:02:18;;;;;;;3.30;2.58;;;;;;;;;;10348486;28;20026;-85
2023/06/29 16:07:23;;;;;;;6.80;2.97;;;;;;;;;;10358003;28;20045;-84
2023/06/29 16:12:24;;;;;;;5.85;3.25;;;;;;;;;;10354095;28;20191;-84
2023/06/29 16:17:27;;;;;;;4.10;2.30;;;;;;;;;;10351882;28;20034;-84
2023/06/29 16:22:30;;;;;;;5.32;3.35;;;;;;;;;;10367949;28;20030;-85
2023/06/29 16:27:31;;;;;;;3.63;2.97;;;;;;;;;;10366764;28;20057;-85
2023/06/29 16:32:32;;;;;;;4.30;3.05;;;;;;;;;;10365002;28;20692;-84
2023/06/29 16:37:34;;;;;;;4.00;2.80;;;;;;;;;;10350388;28;20737;-84
2023/06/29 16:42:35;;;;;;;4.68;2.90;;;;;;;;;;10365400;28;20025;-84
2023/06/29 16:47:37;;;;;;;5.93;2.70;;;;;;;;;;10362406;28;20049;-84
2023/06/29 16:52:38;;;;;;;5.57;3.60;;;;;;;;;;10366557;28;20036;-84
2023/06/29 16:57:39;;;;;;;6.70;3.13;;;;;;;;;;10355994;28;20161;-85
2023/06/29 17:02:40;;;;;;;3.58;2.88;;;;;;;;;;10363434;28;20040;-84
2023/06/29 17:07:41;;;;;;;3.72;2.80;;;;;;;;;;10356271;28;20049;-84
2023/06/29 17:12:42;;;;;;;5.00;3.30;;;;;;;;;;10422539;23;20072;-83
2023/06/29 17:17:43;;;;;;;4.03;2.60;;;;;;;;;;10410585;28;20033;-85
2023/06/29 17:22:45;;;;;;;3.15;2.40;;;;;;;;;;10405949;28;20527;-84
2023/06/29 17:27:46;;;;;;;4.50;2.83;;;;;;;;;;10405046;28;20397;-84
2023/06/29 17:32:47;;;;;;;6.25;2.75;;;;;;;;;;10388429;23;20111;-84
2023/06/29 17:37:48;;;;;;;5.65;3.33;;;;;;;;;;10359991;28;20060;-84
2023/06/29 17:42:49;;;;;;;5.28;2.78;;;;;;;;;;10365033;28;20105;-85
2023/06/29 17:47:50;;;;;;;4.88;3.22;;;;;;;;;;10359098;28;20136;-85
2023/06/29 17:52:51;;;;;;;3.60;2.85;;;;;;;;;;10366595;28;20033;-85
2023/06/29 17:57:52;;;;;;;2.95;2.47;;;;;;;;;;10358233;28;20101;-85
2023/06/29 18:02:53;;;;;;;5.32;3.03;;;;;;;;;;10364070;28;20026;-83
2023/06/29 18:07:55;;;;;;;6.95;2.95;;;;;;;;;;10364121;28;20034;-83
2023/06/29 18:12:56;;;;;;;5.30;3.40;;;;;;;;;;10364301;28;20096;-84
2023/06/29 18:17:57;;;;;;;5.18;3.40;;;;;;;;;;10361903;28;20022;-83
2023/06/29 18:23:00;;;;;;;4.82;3.55;;;;;;;;;;10360273;28;20041;-84
2023/06/29 18:28:01;;;;;;;6.43;3.50;;;;;;;;;;10362425;28;20037;-83
2023/06/29 18:33:02;;;;;;;7.38;3.80;;;;;;;;;;10361199;28;20055;-83
2023/06/29 18:38:03;;;;;;;5.15;3.42;;;;;;;;;;10345550;28;20018;-85
2023/06/29 18:43:04;;;;;;;4.82;3.40;;;;;;;;;;10353187;28;20037;-85
2023/06/29 18:48:05;;;;;;;7.18;4.32;;;;;;;;;;10357043;28;20838;-84
2023/06/29 18:53:06;;;;;;;7.07;4.43;;;;;;;;;;10347157;28;20040;-85
2023/06/29 18:58:07;;;;;;;9.25;4.47;;;;;;;;;;10361400;28;20041;-84
2023/06/29 19:03:08;;;;;;;7.20;4.55;;;;;;;;;;10365769;28;20026;-83
2023/06/29 19:08:10;;;;;;;10.55;5.28;;;;;;;;;;10358890;28;20044;-85
2023/06/29 19:13:11;;;;;;;9.98;4.85;;;;;;;;;;10364137;28;20044;-85
2023/06/29 19:18:16;;;;;;;8.60;4.25;;;;;;;;;;10358567;28;20443;-85
2023/06/29 19:28:21;;;;;;;9.55;5.03;;;;;;;;;;10402758;28;20049;-84
2023/06/29 19:33:22;;;;;;;10.40;5.18;;;;;;;;;;10405273;28;20028;-85
2023/06/29 19:38:23;;;;;;;8.60;5.70;;;;;;;;;;10397498;28;20040;-84
2023/06/29 19:43:24;;;;;;;9.50;5.72;;;;;;;;;;10387818;28;20555;-84
2023/06/29 19:48:25;;;;;;;8.30;5.97;;;;;;;;;;10385354;28;20051;-84
2023/06/29 19:53:26;;;;;;;8.07;4.80;;;;;;;;;;10395415;28;20026;-84
2023/06/29 19:58:27;;;;;;;6.70;4.95;;;;;;;;;;10418926;28;20033;-85
2023/06/29 20:03:28;;;;;;;8.05;4.85;;;;;;;;;;10395166;28;20052;-84
2023/06/29 20:08:29;;;;;;;8.00;4.43;;;;;;;;;;10408079;28;20044;-85
2023/06/29 20:13:30;;;;;;;7.03;4.40;;;;;;;;;;10409395;28;20507;-85
2023/06/29 20:18:31;;;;;;;7.82;4.90;;;;;;;;;;10407552;28;20464;-84
2023/06/29 20:23:32;;;;;;;6.13;4.55;;;;;;;;;;10402207;28;20033;-85
2023/06/29 20:28:33;;;;;;;8.43;5.30;;;;;;;;;;10397024;28;20401;-85
2023/06/29 20:33:34;;;;;;;7.20;5.20;;;;;;;;;;10393059;28;20033;-85
2023/06/29 20:38:35;;;;;;;6.25;4.63;;;;;;;;;;10397384;28;20550;-85
2023/06/29 20:43:36;;;;;;;6.70;4.70;;;;;;;;;;10390961;28;20030;-84
2023/06/29 20:48:37;;;;;;;8.43;5.15;;;;;;;;;;10388785;28;20047;-85
2023/06/29 20:53:38;;;;;;;8.07;5.63;;;;;;;;;;10399855;28;20401;-85
2023/06/29 20:58:39;;;;;;;8.05;5.00;;;;;;;;;;10418199;28;20071;-85
2023/06/29 21:03:44;;;;;;;8.05;4.97;;;;;;;;;;10408250;28;20411;-84
2023/06/29 21:08:45;;;;;;;7.38;5.32;;;;;;;;;;10406487;28;20048;-85
2023/06/29 21:13:46;;;;;;;7.40;5.63;;;;;;;;;;10404421;28;20033;-85
2023/06/29 21:18:47;;;;;;;8.93;5.82;;;;;;;;;;10406393;28;20029;-85
2023/06/29 21:23:48;;;;;;;7.07;4.90;;;;;;;;;;10404218;28;20065;-84
2023/06/29 21:28:52;;;;;;;6.60;5.03;;;;;;;;;;10388102;28;20098;-85
2023/06/29 21:33:54;;;;;;;6.35;4.32;;;;;;;;;;10387914;28;20117;-85
2023/06/29 21:38:55;;;;;;;7.65;5.35;;;;;;;;;;10387655;28;20095;-85
2023/06/29 21:43:56;;;;;;;6.30;4.60;;;;;;;;;;10387252;28;20100;-86
2023/06/29 21:48:57;;;;;;;6.40;4.35;;;;;;;;;;10398289;28;20088;-85
2023/06/29 21:53:58;;;;;;;5.97;4.82;;;;;;;;;;10396506;28;20025;-85
2023/06/29 21:58:59;;;;;;;6.22;4.72;;;;;;;;;;10407920;28;20026;-85
2023/06/29 22:04:00;;;;;;;9.55;5.60;;;;;;;;;;10413782;28;20037;-85
2023/06/29 22:09:02;;;;;;;7.35;5.28;;;;;;;;;;10404549;28;20042;-86
2023/06/29 22:14:03;;;;;;;8.63;5.50;;;;;;;;;;10396893;28;20032;-85
2023/06/29 22:19:04;;;;;;;7.63;5.25;;;;;;;;;;10392877;28;20055;-85
2023/06/29 22:24:05;;;;;;;5.45;4.50;;;;;;;;;;10395155;28;20056;-86
2023/06/29 22:29:06;;;;;;;6.38;5.25;;;;;;;;;;10385652;28;20030;-87
2023/06/29 22:34:07;;;;;;;9.65;4.97;;;;;;;;;;10400254;28;20030;-87
2023/06/29 22:39:09;;;;;;;9.32;4.63;;;;;;;;;;10396012;28;20034;-87
2023/06/29 22:44:10;;;;;;;6.63;4.88;;;;;;;;;;10403438;28;20386;-87
2023/06/29 22:49:11;;;;;;;7.53;5.45;;;;;;;;;;10401710;28;20034;-86
2023/06/29 22:54:12;;;;;;;7.00;4.90;;;;;;;;;;10398660;28;20504;-86
2023/06/29 22:59:13;;;;;;;6.68;5.15;;;;;;;;;;10394866;28;20083;-86
2023/06/29 23:04:14;;;;;;;8.43;5.18;;;;;;;;;;10392192;28;20030;-87
2023/06/29 23:09:15;;;;;;;5.85;4.75;;;;;;;;;;10402863;28;20095;-86
2023/06/29 23:14:17;;;;;;;8.82;5.78;;;;;;;;;;10401382;28;20036;-86
2023/06/29 23:19:18;;;;;;;8.13;5.65;;;;;;;;;;10401468;28;20544;-87
2023/06/29 23:24:21;;;;;;;7.60;5.30;;;;;;;;;;10397410;28;20049;-86
2023/06/29 23:29:22;;;;;;;7.80;6.15;;;;;;;;;;10395523;28;20129;-86
2023/06/29 23:34:24;;;;;;;6.68;5.13;;;;;;;;;;10391167;28;20040;-86
2023/06/29 23:39:25;;;;;;;8.23;6.22;;;;;;;;;;10386279;28;20072;-86
2023/06/29 23:44:26;;;;;;;7.55;6.13;;;;;;;;;;10401429;28;20033;-87
2023/06/29 23:49:27;;;;;;;8.27;6.43;;;;;;;;;;10408551;28;20045;-86
2023/06/29 23:54:28;;;;;;;11.07;7.47;;;;;;;;;;10408186;28;20022;-85
2023/06/29 23:59:30;;;;;;;10.57;7.03;;;;;;;;;;10399961;28;20025;-85
